sensor_id;sensor_type;location;lat;lon;timestamp;pressure;altitude;pressure_sealevel;temperature;humidity
17936;BME280;9093;52.062;4.508;2023-06-14T00:01:29;101802.72;;;21.81;47.47
17936;BME280;9093;52.062;4.508;2023-06-14T00:04:10;101803.97;;;21.77;47.43
17936;BME280;9093;52.062;4.508;2023-06-14T00:06:50;101804.09;;;21.75;47.62
17936;BME280;9093;52.062;4.508;2023-06-14T00:09:30;101802.53;;;21.73;47.58
17936;BME280;9093;52.062;4.508;2023-06-14T00:12:11;101810.78;;;21.71;47.70
17936;BME280;9093;52.062;4.508;2023-06-14T00:14:51;101807.50;;;21.67;47.79
17936;BME280;9093;52.062;4.508;2023-06-14T00:17:31;101812.19;;;21.65;48.17
17936;BME280;9093;52.062;4.508;2023-06-14T00:20:12;101808.00;;;21.61;48.00
17936;BME280;9093;52.062;4.508;2023-06-14T00:22:52;101807.50;;;21.56;47.99
17936;BME280;9093;52.062;4.508;2023-06-14T00:25:32;101816.69;;;21.55;48.27
17936;BME280;9093;52.062;4.508;2023-06-14T00:28:13;101806.94;;;21.53;48.07
17936;BME280;9093;52.062;4.508;2023-06-14T00:30:53;101802.59;;;21.50;48.32
17936;BME280;9093;52.062;4.508;2023-06-14T00:33:33;101811.78;;;21.49;48.39
17936;BME280;9093;52.062;4.508;2023-06-14T00:36:13;101797.44;;;21.47;48.50
17936;BME280;9093;52.062;4.508;2023-06-14T00:38:54;101807.56;;;21.45;48.53
17936;BME280;9093;52.062;4.508;2023-06-14T00:41:39;101812.28;;;21.43;48.67
17936;BME280;9093;52.062;4.508;2023-06-14T00:44:19;101816.97;;;21.41;48.73
17936;BME280;9093;52.062;4.508;2023-06-14T00:47:01;101816.25;;;21.39;48.58
17936;BME280;9093;52.062;4.508;2023-06-14T00:49:42;101807.34;;;21.37;48.47
17936;BME280;9093;52.062;4.508;2023-06-14T00:52:23;101818.47;;;21.34;48.53
17936;BME280;9093;52.062;4.508;2023-06-14T00:55:05;101812.31;;;21.32;48.39
17936;BME280;9093;52.062;4.508;2023-06-14T00:57:45;101814.44;;;21.29;48.70
17936;BME280;9093;52.062;4.508;2023-06-14T01:00:26;101805.53;;;21.26;48.56
17936;BME280;9093;52.062;4.508;2023-06-14T01:03:08;101812.09;;;21.24;48.78
17936;BME280;9093;52.062;4.508;2023-06-14T01:06:10;101815.06;;;21.21;48.58
17936;BME280;9093;52.062;4.508;2023-06-14T01:12:09;101805.66;;;21.14;48.45
17936;BME280;9093;52.062;4.508;2023-06-14T01:14:53;101809.34;;;21.13;48.67
17936;BME280;9093;52.062;4.508;2023-06-14T01:17:35;101804.91;;;21.12;48.80
17936;BME280;9093;52.062;4.508;2023-06-14T01:20:16;101809.63;;;21.10;48.59
17936;BME280;9093;52.062;4.508;2023-06-14T01:22:57;101809.88;;;21.07;48.60
17936;BME280;9093;52.062;4.508;2023-06-14T01:25:38;101805.56;;;21.04;48.43
17936;BME280;9093;52.062;4.508;2023-06-14T01:28:20;101806.69;;;21.02;48.50
17936;BME280;9093;52.062;4.508;2023-06-14T01:31:02;101806.78;;;21.00;48.49
17936;BME280;9093;52.062;4.508;2023-06-14T01:33:46;101805.22;;;20.98;48.65
17936;BME280;9093;52.062;4.508;2023-06-14T01:36:27;101807.19;;;20.96;48.58
17936;BME280;9093;52.062;4.508;2023-06-14T01:39:08;101809.16;;;20.94;48.46
17936;BME280;9093;52.062;4.508;2023-06-14T01:41:49;101807.44;;;20.93;48.31
17936;BME280;9093;52.062;4.508;2023-06-14T01:44:31;101816.56;;;20.92;48.21
17936;BME280;9093;52.062;4.508;2023-06-14T01:47:12;101816.81;;;20.88;48.37
17936;BME280;9093;52.062;4.508;2023-06-14T01:49:52;101811.66;;;20.85;48.66
17936;BME280;9093;52.062;4.508;2023-06-14T01:52:32;101805.59;;;20.82;48.34
17936;BME280;9093;52.062;4.508;2023-06-14T01:55:16;101808.69;;;20.77;48.42
17936;BME280;9093;52.062;4.508;2023-06-14T01:57:57;101805.09;;;20.77;48.31
17936;BME280;9093;52.062;4.508;2023-06-14T02:00:38;101805.22;;;20.75;48.46
17936;BME280;9093;52.062;4.508;2023-06-14T02:03:19;101812.66;;;20.73;48.55
17936;BME280;9093;52.062;4.508;2023-06-14T02:05:59;101806.72;;;20.68;48.23
17936;BME280;9093;52.062;4.508;2023-06-14T02:08:39;101814.13;;;20.66;48.35
17936;BME280;9093;52.062;4.508;2023-06-14T02:11:20;101810.66;;;20.64;48.39
17936;BME280;9093;52.062;4.508;2023-06-14T02:14:03;101804.88;;;20.58;48.36
17936;BME280;9093;52.062;4.508;2023-06-14T02:16:44;101803.25;;;20.55;48.26
17936;BME280;9093;52.062;4.508;2023-06-14T02:19:28;101798.09;;;20.52;48.61
17936;BME280;9093;52.062;4.508;2023-06-14T02:22:09;101808.34;;;20.49;48.63
17936;BME280;9093;52.062;4.508;2023-06-14T02:24:49;101805.97;;;20.44;48.55
17936;BME280;9093;52.062;4.508;2023-06-14T02:27:30;101806.97;;;20.43;48.57
17936;BME280;9093;52.062;4.508;2023-06-14T02:30:11;101808.56;;;20.34;48.72
17936;BME280;9093;52.062;4.508;2023-06-14T02:32:51;101817.78;;;20.32;48.77
17936;BME280;9093;52.062;4.508;2023-06-14T02:35:33;101813.31;;;20.31;48.73
17936;BME280;9093;52.062;4.508;2023-06-14T02:38:14;101819.22;;;20.25;48.71
17936;BME280;9093;52.062;4.508;2023-06-14T02:40:54;101815.06;;;20.21;48.78
17936;BME280;9093;52.062;4.508;2023-06-14T02:43:34;101813.56;;;20.17;48.74
17936;BME280;9093;52.062;4.508;2023-06-14T02:46:15;101819.22;;;20.14;48.81
17936;BME280;9093;52.062;4.508;2023-06-14T02:48:56;101824.75;;;20.12;48.82
17936;BME280;9093;52.062;4.508;2023-06-14T02:51:36;101822.31;;;20.09;48.92
17936;BME280;9093;52.062;4.508;2023-06-14T02:54:17;101822.53;;;20.06;48.96
17936;BME280;9093;52.062;4.508;2023-06-14T02:56:57;101821.91;;;20.02;48.82
17936;BME280;9093;52.062;4.508;2023-06-14T02:59:37;101824.00;;;19.99;49.12
17936;BME280;9093;52.062;4.508;2023-06-14T03:02:18;101825.00;;;19.98;48.97
17936;BME280;9093;52.062;4.508;2023-06-14T03:04:58;101833.72;;;19.90;49.21
17936;BME280;9093;52.062;4.508;2023-06-14T03:07:41;101826.56;;;19.89;49.10
17936;BME280;9093;52.062;4.508;2023-06-14T03:10:25;101838.50;;;19.87;49.09
17936;BME280;9093;52.062;4.508;2023-06-14T03:13:09;101830.72;;;19.82;49.32
17936;BME280;9093;52.062;4.508;2023-06-14T03:15:51;101836.16;;;19.82;49.16
17936;BME280;9093;52.062;4.508;2023-06-14T03:18:31;101832.69;;;19.80;49.21
17936;BME280;9093;52.062;4.508;2023-06-14T03:21:15;101842.78;;;19.78;49.21
17936;BME280;9093;52.062;4.508;2023-06-14T03:23:56;101834.88;;;19.75;49.23
17936;BME280;9093;52.062;4.508;2023-06-14T03:26:36;101850.28;;;19.75;49.37
17936;BME280;9093;52.062;4.508;2023-06-14T03:29:17;101853.34;;;19.70;49.39
17936;BME280;9093;52.062;4.508;2023-06-14T03:32:02;101855.28;;;19.68;49.45
17936;BME280;9093;52.062;4.508;2023-06-14T03:34:45;101860.00;;;19.66;49.48
17936;BME280;9093;52.062;4.508;2023-06-14T03:37:25;101859.22;;;19.64;49.46
17936;BME280;9093;52.062;4.508;2023-06-14T03:40:05;101864.66;;;19.64;49.51
17936;BME280;9093;52.062;4.508;2023-06-14T03:42:46;101855.75;;;19.62;49.53
17936;BME280;9093;52.062;4.508;2023-06-14T03:45:26;101859.44;;;19.61;49.43
17936;BME280;9093;52.062;4.508;2023-06-14T03:48:06;101855.88;;;19.60;49.44
17936;BME280;9093;52.062;4.508;2023-06-14T03:50:48;101864.13;;;19.59;49.61
17936;BME280;9093;52.062;4.508;2023-06-14T03:53:29;101865.56;;;19.52;49.48
17936;BME280;9093;52.062;4.508;2023-06-14T03:56:09;101872.06;;;19.49;49.86
17936;BME280;9093;52.062;4.508;2023-06-14T03:58:50;101869.47;;;19.48;49.65
17936;BME280;9093;52.062;4.508;2023-06-14T04:01:30;101869.69;;;19.45;49.93
17936;BME280;9093;52.062;4.508;2023-06-14T04:04:11;101875.31;;;19.42;50.08
17936;BME280;9093;52.062;4.508;2023-06-14T04:06:51;101872.97;;;19.37;49.95
17936;BME280;9093;52.062;4.508;2023-06-14T04:09:32;101879.25;;;19.38;50.04
17936;BME280;9093;52.062;4.508;2023-06-14T04:12:13;101878.38;;;19.37;50.17
17936;BME280;9093;52.062;4.508;2023-06-14T04:14:53;101877.50;;;19.37;50.09
17936;BME280;9093;52.062;4.508;2023-06-14T04:17:34;101889.88;;;19.41;50.00
17936;BME280;9093;52.062;4.508;2023-06-14T04:20:14;101885.41;;;19.40;49.91
17936;BME280;9093;52.062;4.508;2023-06-14T04:22:56;101880.97;;;19.39;50.02
17936;BME280;9093;52.062;4.508;2023-06-14T04:25:37;101887.38;;;19.38;49.90
17936;BME280;9093;52.062;4.508;2023-06-14T04:28:17;101887.25;;;19.39;49.95
17936;BME280;9093;52.062;4.508;2023-06-14T04:30:59;101884.44;;;19.41;50.06
17936;BME280;9093;52.062;4.508;2023-06-14T04:33:41;101880.72;;;19.42;49.90
17936;BME280;9093;52.062;4.508;2023-06-14T04:36:26;101884.22;;;19.44;49.72
17936;BME280;9093;52.062;4.508;2023-06-14T04:39:08;101885.00;;;19.46;49.85
17936;BME280;9093;52.062;4.508;2023-06-14T04:41:49;101889.44;;;19.47;49.70
17936;BME280;9093;52.062;4.508;2023-06-14T04:44:32;101885.72;;;19.48;49.79
17936;BME280;9093;52.062;4.508;2023-06-14T04:47:13;101893.84;;;19.48;49.72
17936;BME280;9093;52.062;4.508;2023-06-14T04:49:54;101891.91;;;19.50;49.73
17936;BME280;9093;52.062;4.508;2023-06-14T04:52:35;101890.94;;;19.51;49.64
17936;BME280;9093;52.062;4.508;2023-06-14T04:55:15;101882.81;;;19.51;49.67
17936;BME280;9093;52.062;4.508;2023-06-14T04:57:56;101887.97;;;19.54;49.58
17936;BME280;9093;52.062;4.508;2023-06-14T05:00:36;101883.56;;;19.53;49.80
17936;BME280;9093;52.062;4.508;2023-06-14T05:03:17;101887.97;;;19.54;49.72
17936;BME280;9093;52.062;4.508;2023-06-14T05:05:58;101882.56;;;19.54;49.82
17936;BME280;9093;52.062;4.508;2023-06-14T05:08:40;101893.41;;;19.54;49.72
17936;BME280;9093;52.062;4.508;2023-06-14T05:11:20;101888.75;;;19.56;49.87
17936;BME280;9093;52.062;4.508;2023-06-14T05:14:04;101895.78;;;19.58;49.73
17936;BME280;9093;52.062;4.508;2023-06-14T05:16:44;101898.50;;;19.58;49.59
17936;BME280;9093;52.062;4.508;2023-06-14T05:19:24;101901.09;;;19.60;49.76
17936;BME280;9093;52.062;4.508;2023-06-14T05:22:04;101903.66;;;19.61;49.82
17936;BME280;9093;52.062;4.508;2023-06-14T05:24:45;101904.63;;;19.60;49.75
17936;BME280;9093;52.062;4.508;2023-06-14T05:27:27;101902.78;;;19.61;49.72
17936;BME280;9093;52.062;4.508;2023-06-14T05:30:08;101905.41;;;19.62;49.72
17936;BME280;9093;52.062;4.508;2023-06-14T05:32:49;101906.88;;;19.66;49.85
17936;BME280;9093;52.062;4.508;2023-06-14T05:35:30;101907.75;;;19.67;49.83
17936;BME280;9093;52.062;4.508;2023-06-14T05:38:10;101909.50;;;19.68;49.75
17936;BME280;9093;52.062;4.508;2023-06-14T05:40:51;101911.22;;;19.69;49.68
17936;BME280;9093;52.062;4.508;2023-06-14T05:43:31;101913.94;;;19.69;49.63
17936;BME280;9093;52.062;4.508;2023-06-14T05:46:12;101909.28;;;19.71;49.70
17936;BME280;9093;52.062;4.508;2023-06-14T05:48:53;101912.09;;;19.70;49.64
17936;BME280;9093;52.062;4.508;2023-06-14T05:51:34;101918.38;;;19.70;49.60
17936;BME280;9093;52.062;4.508;2023-06-14T05:54:17;101913.72;;;19.72;49.73
17936;BME280;9093;52.062;4.508;2023-06-14T05:56:57;101922.06;;;19.69;49.58
17936;BME280;9093;52.062;4.508;2023-06-14T05:59:41;101919.13;;;19.72;49.63
17936;BME280;9093;52.062;4.508;2023-06-14T06:02:21;101925.28;;;19.74;49.67
17936;BME280;9093;52.062;4.508;2023-06-14T06:05:02;101925.28;;;19.74;49.71
17936;BME280;9093;52.062;4.508;2023-06-14T06:07:42;101923.34;;;19.76;49.78
17936;BME280;9093;52.062;4.508;2023-06-14T06:10:26;101921.38;;;19.78;49.93
17936;BME280;9093;52.062;4.508;2023-06-14T06:13:08;101925.78;;;19.79;49.88
17936;BME280;9093;52.062;4.508;2023-06-14T06:15:49;101923.94;;;19.80;49.80
17936;BME280;9093;52.062;4.508;2023-06-14T06:18:32;101919.41;;;19.80;49.66
17936;BME280;9093;52.062;4.508;2023-06-14T06:21:12;101922.97;;;19.81;49.71
17936;BME280;9093;52.062;4.508;2023-06-14T06:23:52;101926.66;;;19.80;49.76
17936;BME280;9093;52.062;4.508;2023-06-14T06:26:32;101933.72;;;19.82;49.84
17936;BME280;9093;52.062;4.508;2023-06-14T06:29:13;101934.47;;;19.84;49.69
17936;BME280;9093;52.062;4.508;2023-06-14T06:31:54;101932.47;;;19.86;49.58
17936;BME280;9093;52.062;4.508;2023-06-14T06:34:36;101932.38;;;19.88;49.59
17936;BME280;9093;52.062;4.508;2023-06-14T06:37:17;101940.41;;;19.89;49.54
17936;BME280;9093;52.062;4.508;2023-06-14T06:39:58;101943.88;;;19.91;49.22
17936;BME280;9093;52.062;4.508;2023-06-14T06:42:38;101949.03;;;19.94;49.36
17936;BME280;9093;52.062;4.508;2023-06-14T06:45:18;101951.66;;;19.96;49.31
17936;BME280;9093;52.062;4.508;2023-06-14T06:47:59;101940.81;;;19.96;49.43
17936;BME280;9093;52.062;4.508;2023-06-14T06:50:39;101951.53;;;19.97;49.57
17936;BME280;9093;52.062;4.508;2023-06-14T06:53:19;101954.00;;;20.00;49.36
17936;BME280;9093;52.062;4.508;2023-06-14T06:55:59;101955.72;;;20.01;49.41
17936;BME280;9093;52.062;4.508;2023-06-14T06:58:40;101951.94;;;20.04;49.52
17936;BME280;9093;52.062;4.508;2023-06-14T07:01:20;101967.09;;;20.06;49.30
17936;BME280;9093;52.062;4.508;2023-06-14T07:04:00;101969.59;;;20.10;49.29
17936;BME280;9093;52.062;4.508;2023-06-14T07:06:42;101973.03;;;20.12;49.29
17936;BME280;9093;52.062;4.508;2023-06-14T07:09:23;101969.34;;;20.13;49.07
17936;BME280;9093;52.062;4.508;2023-06-14T07:12:04;101972.81;;;20.15;49.20
17936;BME280;9093;52.062;4.508;2023-06-14T07:14:45;101976.28;;;20.17;49.12
17936;BME280;9093;52.062;4.508;2023-06-14T07:17:25;101980.56;;;20.19;48.99
17936;BME280;9093;52.062;4.508;2023-06-14T07:20:06;101974.06;;;20.22;49.03
17936;BME280;9093;52.062;4.508;2023-06-14T07:22:53;101974.06;;;20.22;49.04
17936;BME280;9093;52.062;4.508;2023-06-14T07:25:33;101972.09;;;20.24;49.11
17936;BME280;9093;52.062;4.508;2023-06-14T07:28:14;101976.41;;;20.26;49.11
17936;BME280;9093;52.062;4.508;2023-06-14T07:30:54;101981.63;;;20.29;49.10
17936;BME280;9093;52.062;4.508;2023-06-14T07:33:35;101976.19;;;20.29;49.20
17936;BME280;9093;52.062;4.508;2023-06-14T07:36:15;101982.28;;;20.33;49.03
17936;BME280;9093;52.062;4.508;2023-06-14T07:38:55;101986.47;;;20.37;48.94
17936;BME280;9093;52.062;4.508;2023-06-14T07:41:36;101985.50;;;20.38;49.05
17936;BME280;9093;52.062;4.508;2023-06-14T07:44:16;101985.28;;;20.41;49.14
17936;BME280;9093;52.062;4.508;2023-06-14T07:46:56;101989.72;;;20.42;48.95
17936;BME280;9093;52.062;4.508;2023-06-14T07:49:39;101998.06;;;20.39;49.02
17936;BME280;9093;52.062;4.508;2023-06-14T07:52:20;101992.28;;;20.43;48.76
17936;BME280;9093;52.062;4.508;2023-06-14T07:55:00;101999.34;;;20.46;49.13
17936;BME280;9093;52.062;4.508;2023-06-14T07:57:41;102002.66;;;20.50;49.29
17936;BME280;9093;52.062;4.508;2023-06-14T08:00:22;101997.88;;;20.53;49.29
17936;BME280;9093;52.062;4.508;2023-06-14T08:03:03;102000.50;;;20.55;49.32
17936;BME280;9093;52.062;4.508;2023-06-14T08:05:44;101994.69;;;20.59;49.46
17936;BME280;9093;52.062;4.508;2023-06-14T08:08:24;101992.75;;;20.61;49.24
17936;BME280;9093;52.062;4.508;2023-06-14T08:11:04;101999.66;;;20.65;49.15
17936;BME280;9093;52.062;4.508;2023-06-14T08:13:45;102000.41;;;20.67;49.49
17936;BME280;9093;52.062;4.508;2023-06-14T08:16:25;101993.75;;;20.71;49.12
17936;BME280;9093;52.062;4.508;2023-06-14T08:19:06;102000.78;;;20.74;49.31
17936;BME280;9093;52.062;4.508;2023-06-14T08:21:46;102000.41;;;20.78;49.29
17936;BME280;9093;52.062;4.508;2023-06-14T08:24:27;102001.91;;;20.82;49.15
17936;BME280;9093;52.062;4.508;2023-06-14T08:27:07;101998.09;;;20.85;49.18
17936;BME280;9093;52.062;4.508;2023-06-14T08:29:48;101998.69;;;20.88;49.19
17936;BME280;9093;52.062;4.508;2023-06-14T08:32:28;102005.63;;;20.93;49.31
17936;BME280;9093;52.062;4.508;2023-06-14T08:35:08;102000.69;;;20.98;49.28
17936;BME280;9093;52.062;4.508;2023-06-14T08:37:49;102006.75;;;21.01;49.23
17936;BME280;9093;52.062;4.508;2023-06-14T08:40:30;101999.22;;;21.05;49.37
17936;BME280;9093;52.062;4.508;2023-06-14T08:43:10;101996.25;;;21.08;49.30
17936;BME280;9093;52.062;4.508;2023-06-14T08:45:53;101992.28;;;21.12;49.13
17936;BME280;9093;52.062;4.508;2023-06-14T08:48:39;102002.94;;;21.15;49.09
17936;BME280;9093;52.062;4.508;2023-06-14T08:51:19;102008.78;;;21.21;49.06
17936;BME280;9093;52.062;4.508;2023-06-14T08:54:02;102001.97;;;21.27;48.89
17936;BME280;9093;52.062;4.508;2023-06-14T08:56:46;101999.75;;;21.32;48.50
17936;BME280;9093;52.062;4.508;2023-06-14T08:59:28;102001.38;;;21.35;48.55
17936;BME280;9093;52.062;4.508;2023-06-14T09:02:09;102003.69;;;21.39;48.22
17936;BME280;9093;52.062;4.508;2023-06-14T09:04:53;102000.50;;;21.45;48.29
17936;BME280;9093;52.062;4.508;2023-06-14T09:07:33;102009.88;;;21.52;48.00
17936;BME280;9093;52.062;4.508;2023-06-14T09:10:15;102011.34;;;21.56;47.92
17936;BME280;9093;52.062;4.508;2023-06-14T09:12:55;102010.13;;;21.60;47.98
17936;BME280;9093;52.062;4.508;2023-06-14T09:15:35;102006.16;;;21.64;47.54
17936;BME280;9093;52.062;4.508;2023-06-14T09:18:16;102015.66;;;21.70;47.49
17936;BME280;9093;52.062;4.508;2023-06-14T09:20:58;102021.56;;;21.75;47.55
17936;BME280;9093;52.062;4.508;2023-06-14T09:23:43;102012.06;;;21.81;47.72
17936;BME280;9093;52.062;4.508;2023-06-14T09:26:23;102006.34;;;21.84;47.29
17936;BME280;9093;52.062;4.508;2023-06-14T09:29:04;102017.72;;;21.89;47.39
17936;BME280;9093;52.062;4.508;2023-06-14T09:31:46;102012.78;;;21.94;47.04
17936;BME280;9093;52.062;4.508;2023-06-14T09:34:27;102013.13;;;22.00;46.97
17936;BME280;9093;52.062;4.508;2023-06-14T09:37:10;102011.91;;;22.04;46.88
17936;BME280;9093;52.062;4.508;2023-06-14T09:39:51;102010.94;;;22.05;46.83
17936;BME280;9093;52.062;4.508;2023-06-14T09:42:31;102021.13;;;22.13;46.70
17936;BME280;9093;52.062;4.508;2023-06-14T09:45:12;102011.34;;;22.22;46.48
17936;BME280;9093;52.062;4.508;2023-06-14T09:47:54;102006.53;;;22.25;46.42
17936;BME280;9093;52.062;4.508;2023-06-14T09:50:35;102019.63;;;22.31;46.50
17936;BME280;9093;52.062;4.508;2023-06-14T09:53:15;102012.91;;;22.35;46.42
17936;BME280;9093;52.062;4.508;2023-06-14T09:56:01;102019.97;;;22.38;46.50
17936;BME280;9093;52.062;4.508;2023-06-14T09:58:41;102021.28;;;22.43;46.14
17936;BME280;9093;52.062;4.508;2023-06-14T10:01:24;102012.72;;;22.48;46.18
17936;BME280;9093;52.062;4.508;2023-06-14T10:04:06;102021.47;;;22.52;45.59
17936;BME280;9093;52.062;4.508;2023-06-14T10:06:47;102023.81;;;22.56;45.57
17936;BME280;9093;52.062;4.508;2023-06-14T10:09:28;102019.09;;;22.58;45.50
17936;BME280;9093;52.062;4.508;2023-06-14T10:12:08;102017.00;;;22.62;45.43
17936;BME280;9093;52.062;4.508;2023-06-14T10:14:49;102022.03;;;22.66;45.07
17936;BME280;9093;52.062;4.508;2023-06-14T10:17:39;102024.63;;;22.68;45.06
17936;BME280;9093;52.062;4.508;2023-06-14T10:20:32;102020.75;;;22.70;44.83
17936;BME280;9093;52.062;4.508;2023-06-14T10:23:20;102011.50;;;22.73;44.94
17936;BME280;9093;52.062;4.508;2023-06-14T10:26:01;102009.53;;;22.75;44.94
17936;BME280;9093;52.062;4.508;2023-06-14T10:28:56;102013.25;;;22.74;44.75
17936;BME280;9093;52.062;4.508;2023-06-14T10:31:55;102007.25;;;22.80;44.81
17936;BME280;9093;52.062;4.508;2023-06-14T10:34:38;102006.72;;;22.86;44.79
17936;BME280;9093;52.062;4.508;2023-06-14T10:37:19;102005.97;;;22.84;44.73
17936;BME280;9093;52.062;4.508;2023-06-14T10:39:59;102003.47;;;22.92;44.39
17936;BME280;9093;52.062;4.508;2023-06-14T10:42:51;102019.13;;;23.00;44.44
17936;BME280;9093;52.062;4.508;2023-06-14T10:45:31;102014.03;;;23.06;43.82
17936;BME280;9093;52.062;4.508;2023-06-14T10:48:29;102010.00;;;23.10;44.14
17936;BME280;9093;52.062;4.508;2023-06-14T10:51:17;102013.94;;;23.17;43.96
17936;BME280;9093;52.062;4.508;2023-06-14T10:54:01;102025.03;;;23.25;43.87
17936;BME280;9093;52.062;4.508;2023-06-14T10:59:31;102022.19;;;23.37;43.59
17936;BME280;9093;52.062;4.508;2023-06-14T11:05:14;102016.66;;;23.48;43.03
17936;BME280;9093;52.062;4.508;2023-06-14T11:08:05;102003.47;;;23.53;43.17
17936;BME280;9093;52.062;4.508;2023-06-14T11:11:06;102003.97;;;23.58;42.86
17936;BME280;9093;52.062;4.508;2023-06-14T11:13:47;101999.38;;;23.68;42.85
17936;BME280;9093;52.062;4.508;2023-06-14T11:16:27;101987.91;;;23.74;42.81
17936;BME280;9093;52.062;4.508;2023-06-14T11:19:08;102005.44;;;23.81;42.78
17936;BME280;9093;52.062;4.508;2023-06-14T11:21:49;101995.72;;;23.88;42.48
17936;BME280;9093;52.062;4.508;2023-06-14T11:24:32;101995.13;;;23.94;42.34
17936;BME280;9093;52.062;4.508;2023-06-14T11:27:12;101993.09;;;23.96;42.79
17936;BME280;9093;52.062;4.508;2023-06-14T11:29:54;101990.28;;;24.08;42.22
17936;BME280;9093;52.062;4.508;2023-06-14T11:32:34;101988.97;;;24.12;42.01
17936;BME280;9093;52.062;4.508;2023-06-14T11:35:15;101989.16;;;24.20;42.13
17936;BME280;9093;52.062;4.508;2023-06-14T11:37:56;101987.00;;;24.23;41.56
17936;BME280;9093;52.062;4.508;2023-06-14T11:40:40;101988.00;;;24.32;42.05
17936;BME280;9093;52.062;4.508;2023-06-14T11:43:20;101986.56;;;24.37;41.71
17936;BME280;9093;52.062;4.508;2023-06-14T11:46:01;101986.13;;;24.42;41.63
17936;BME280;9093;52.062;4.508;2023-06-14T11:48:42;101992.47;;;24.52;41.04
17936;BME280;9093;52.062;4.508;2023-06-14T11:51:23;101990.72;;;24.61;40.89
17936;BME280;9093;52.062;4.508;2023-06-14T11:54:04;101982.78;;;24.67;40.66
17936;BME280;9093;52.062;4.508;2023-06-14T11:56:48;101984.25;;;24.71;40.98
17936;BME280;9093;52.062;4.508;2023-06-14T11:59:29;101983.94;;;24.74;40.72
17936;BME280;9093;52.062;4.508;2023-06-14T12:02:15;101985.06;;;24.81;40.20
17936;BME280;9093;52.062;4.508;2023-06-14T12:04:55;101987.97;;;24.90;40.26
17936;BME280;9093;52.062;4.508;2023-06-14T12:07:39;101994.00;;;24.93;40.60
17936;BME280;9093;52.062;4.508;2023-06-14T12:10:20;101997.00;;;25.00;40.42
17936;BME280;9093;52.062;4.508;2023-06-14T12:13:00;101987.91;;;25.09;40.03
17936;BME280;9093;52.062;4.508;2023-06-14T12:15:40;101993.66;;;25.15;39.72
17936;BME280;9093;52.062;4.508;2023-06-14T12:18:21;101992.19;;;25.21;39.83
17936;BME280;9093;52.062;4.508;2023-06-14T12:21:12;101989.56;;;25.29;39.44
17936;BME280;9093;52.062;4.508;2023-06-14T12:23:52;101985.50;;;25.33;39.62
17936;BME280;9093;52.062;4.508;2023-06-14T12:26:33;101998.44;;;25.41;39.69
17936;BME280;9093;52.062;4.508;2023-06-14T12:29:13;101997.25;;;25.43;39.97
17936;BME280;9093;52.062;4.508;2023-06-14T12:31:54;102000.56;;;25.47;39.51
17936;BME280;9093;52.062;4.508;2023-06-14T12:34:37;102006.97;;;25.55;39.69
17936;BME280;9093;52.062;4.508;2023-06-14T12:37:17;102000.50;;;25.56;39.50
17936;BME280;9093;52.062;4.508;2023-06-14T12:39:57;101999.25;;;25.60;39.57
17936;BME280;9093;52.062;4.508;2023-06-14T12:42:38;102009.56;;;25.67;39.25
17936;BME280;9093;52.062;4.508;2023-06-14T12:45:18;102006.22;;;25.73;39.08
17936;BME280;9093;52.062;4.508;2023-06-14T12:47:59;101995.69;;;25.78;39.02
17936;BME280;9093;52.062;4.508;2023-06-14T12:50:39;102003.97;;;25.86;39.21
17936;BME280;9093;52.062;4.508;2023-06-14T12:53:20;101987.56;;;25.86;39.25
17936;BME280;9093;52.062;4.508;2023-06-14T12:56:01;101994.59;;;25.88;39.29
17936;BME280;9093;52.062;4.508;2023-06-14T12:58:42;101986.94;;;25.92;38.85
17936;BME280;9093;52.062;4.508;2023-06-14T13:01:25;101995.69;;;25.95;38.77
17936;BME280;9093;52.062;4.508;2023-06-14T13:04:06;101995.22;;;26.00;38.38
17936;BME280;9093;52.062;4.508;2023-06-14T13:06:46;101993.19;;;26.02;39.01
17936;BME280;9093;52.062;4.508;2023-06-14T13:09:27;102003.81;;;26.05;38.72
17936;BME280;9093;52.062;4.508;2023-06-14T13:12:12;102001.81;;;26.07;38.43
17936;BME280;9093;52.062;4.508;2023-06-14T13:14:52;102000.50;;;26.11;38.19
17936;BME280;9093;52.062;4.508;2023-06-14T13:17:33;102008.09;;;26.17;38.32
17936;BME280;9093;52.062;4.508;2023-06-14T13:20:18;102001.56;;;26.18;38.05
17936;BME280;9093;52.062;4.508;2023-06-14T13:22:59;102011.22;;;26.22;38.11
17936;BME280;9093;52.062;4.508;2023-06-14T13:25:39;102003.56;;;26.26;37.92
17936;BME280;9093;52.062;4.508;2023-06-14T13:28:20;101999.66;;;26.28;38.19
17936;BME280;9093;52.062;4.508;2023-06-14T13:31:01;102001.44;;;26.37;38.37
17936;BME280;9093;52.062;4.508;2023-06-14T13:33:42;102014.69;;;26.42;37.71
17936;BME280;9093;52.062;4.508;2023-06-14T13:36:22;102002.38;;;26.46;37.66
17936;BME280;9093;52.062;4.508;2023-06-14T13:39:02;101997.28;;;26.51;37.92
17936;BME280;9093;52.062;4.508;2023-06-14T13:41:43;101993.38;;;26.54;37.91
17936;BME280;9093;52.062;4.508;2023-06-14T13:44:23;102005.72;;;26.58;37.58
17936;BME280;9093;52.062;4.508;2023-06-14T13:47:05;102002.50;;;26.62;37.62
17936;BME280;9093;52.062;4.508;2023-06-14T13:49:46;102003.06;;;26.66;37.36
17936;BME280;9093;52.062;4.508;2023-06-14T13:52:27;102001.88;;;26.68;37.67
17936;BME280;9093;52.062;4.508;2023-06-14T13:55:07;101992.81;;;26.68;37.65
17936;BME280;9093;52.062;4.508;2023-06-14T13:57:48;101983.91;;;26.66;37.62
17936;BME280;9093;52.062;4.508;2023-06-14T14:00:28;101986.63;;;26.66;37.80
17936;BME280;9093;52.062;4.508;2023-06-14T14:03:08;101990.91;;;26.68;37.62
17936;BME280;9093;52.062;4.508;2023-06-14T14:05:49;101986.84;;;26.72;37.36
17936;BME280;9093;52.062;4.508;2023-06-14T14:08:29;101981.91;;;26.76;37.40
17936;BME280;9093;52.062;4.508;2023-06-14T14:11:10;101987.06;;;26.79;37.20
17936;BME280;9093;52.062;4.508;2023-06-14T14:13:50;101986.75;;;26.82;37.29
17936;BME280;9093;52.062;4.508;2023-06-14T14:16:30;101980.63;;;26.88;37.14
17936;BME280;9093;52.062;4.508;2023-06-14T14:19:11;101969.66;;;26.88;37.44
17936;BME280;9093;52.062;4.508;2023-06-14T14:21:51;101979.63;;;26.89;37.14
17936;BME280;9093;52.062;4.508;2023-06-14T14:24:34;101979.47;;;26.91;37.41